Time;durP1;ratioP1;P1;durP2;ratioP2;P2;SDS_P1;SDS_P2;PMS_P1;PMS_P2;Temp;Humidity;BMP_temperature;BMP_pressure;BME280_temperature;BME280_humidity;BME280_pressure;Samples;Min_cycle;Max_cycle;Signal;HPM_P1;HPM_P2
2023/06/28 00:02:36;;;;;;;14.17;2.83;;;10.80;99.90;;;;;;4391486;28;656569;-74
2023/06/28 00:05:25;;;;;;;6.27;2.83;;;10.80;99.90;;;;;;4407154;28;659005;-74
2023/06/28 00:08:12;;;;;;;7.97;2.73;;;10.80;99.90;;;;;;4388677;28;658276;-75
2023/06/28 00:10:59;;;;;;;6.27;2.80;;;10.80;99.90;;;;;;4410862;28;656992;-74
2023/06/28 00:13:47;;;;;;;11.20;2.80;;;10.80;99.90;;;;;;4382882;28;657299;-74
2023/06/28 00:16:34;;;;;;;10.23;2.77;;;10.80;99.90;;;;;;4414984;28;657479;-74
2023/06/28 00:19:26;;;;;;;4.07;2.27;;;10.80;99.90;;;;;;4390960;28;657773;-74
2023/06/28 00:22:15;;;;;;;9.97;2.57;;;10.70;99.90;;;;;;4393367;28;657272;-74
2023/06/28 00:25:03;;;;;;;7.23;2.87;;;10.70;99.90;;;;;;4389226;28;657931;-75
2023/06/28 00:27:51;;;;;;;8.97;2.60;;;10.80;99.90;;;;;;4391929;28;656325;-74
2023/06/28 00:30:38;;;;;;;5.23;2.40;;;10.70;99.90;;;;;;4410832;28;657740;-74
2023/06/28 00:33:25;;;;;;;3.77;2.30;;;10.70;99.90;;;;;;4389255;28;656399;-75
2023/06/28 00:36:12;;;;;;;6.80;2.70;;;10.70;99.90;;;;;;4405479;28;657701;-74
2023/06/28 00:39:02;;;;;;;5.63;2.83;;;10.70;99.90;;;;;;4406038;28;656439;-75
2023/06/28 00:41:49;;;;;;;5.67;2.83;;;10.70;99.90;;;;;;4414834;28;656036;-74
2023/06/28 00:44:36;;;;;;;4.70;2.67;;;10.60;99.90;;;;;;4389595;28;656875;-74
2023/06/28 00:47:23;;;;;;;6.63;2.57;;;10.50;99.90;;;;;;4411566;28;657049;-74
2023/06/28 00:50:11;;;;;;;5.47;2.93;;;10.50;99.90;;;;;;4382637;28;657138;-75
2023/06/28 00:52:58;;;;;;;7.20;2.90;;;10.50;99.90;;;;;;4413316;28;657071;-75
2023/06/28 00:55:47;;;;;;;6.30;2.87;;;10.50;99.90;;;;;;4390663;28;656549;-74
2023/06/28 00:58:34;;;;;;;4.30;2.90;;;10.30;99.90;;;;;;4410899;28;656537;-75
2023/06/28 01:01:21;;;;;;;5.10;2.73;;;10.20;99.90;;;;;;4385874;28;657117;-75
2023/06/28 01:04:08;;;;;;;7.00;2.80;;;10.30;99.90;;;;;;4412103;28;656684;-75
2023/06/28 01:06:59;;;;;;;3.70;2.77;;;10.20;99.90;;;;;;4384584;28;656932;-75
2023/06/28 01:09:46;;;;;;;7.67;2.97;;;10.20;99.90;;;;;;4387110;28;656897;-74
2023/06/28 01:12:35;;;;;;;7.60;2.90;;;10.30;99.90;;;;;;4409975;28;657266;-75
2023/06/28 01:15:22;;;;;;;6.73;3.17;;;10.20;99.90;;;;;;4383689;28;657258;-75
2023/06/28 01:18:09;;;;;;;5.70;3.20;;;10.10;99.90;;;;;;4410620;28;657022;-75
2023/06/28 01:20:56;;;;;;;6.53;3.20;;;10.00;99.90;;;;;;4382785;28;656597;-74
2023/06/28 01:23:45;;;;;;;6.73;3.23;;;10.10;99.90;;;;;;4408485;28;657664;-74
2023/06/28 01:26:33;;;;;;;8.20;2.83;;;10.00;99.90;;;;;;4387746;28;657555;-75
2023/06/28 01:29:21;;;;;;;7.00;3.43;;;10.00;99.90;;;;;;4402476;28;656515;-74
2023/06/28 01:32:09;;;;;;;4.53;2.83;;;10.00;99.90;;;;;;4413806;28;657225;-74
2023/06/28 01:34:56;;;;;;;8.73;3.27;;;10.00;99.90;;;;;;4392079;28;656521;-75
2023/06/28 01:37:43;;;;;;;10.00;3.30;;;9.90;99.90;;;;;;4415070;28;656375;-75
2023/06/28 01:40:35;;;;;;;10.90;4.10;;;9.80;99.90;;;;;;4379532;28;656602;-75
2023/06/28 01:43:23;;;;;;;6.67;3.20;;;9.80;99.90;;;;;;4390416;28;657088;-75
2023/06/28 01:46:10;;;;;;;9.10;3.23;;;9.80;99.90;;;;;;4398252;28;655714;-75
2023/06/28 01:48:57;;;;;;;8.40;3.40;;;9.70;99.90;;;;;;4413048;28;656288;-75
2023/06/28 01:51:45;;;;;;;5.27;3.23;;;9.80;99.90;;;;;;4404570;28;655541;-75
2023/06/28 01:54:33;;;;;;;5.10;2.97;;;9.70;99.90;;;;;;4416079;28;655998;-75
2023/06/28 01:57:22;;;;;;;6.77;3.07;;;9.70;99.90;;;;;;4385233;28;655788;-75
2023/06/28 02:00:10;;;;;;;7.33;3.07;;;9.60;99.90;;;;;;4414118;28;655349;-75
2023/06/28 02:02:57;;;;;;;5.93;3.27;;;9.60;99.90;;;;;;4388537;28;656488;-75
2023/06/28 02:05:45;;;;;;;5.83;3.40;;;9.40;99.90;;;;;;4411841;28;656003;-75
2023/06/28 02:08:32;;;;;;;6.10;3.20;;;9.40;99.90;;;;;;4389461;28;656321;-75
2023/06/28 02:11:19;;;;;;;7.90;3.60;;;9.40;99.90;;;;;;4412019;28;655238;-75
2023/06/28 02:14:08;;;;;;;7.30;3.27;;;9.30;99.90;;;;;;4385710;28;655439;-74
2023/06/28 02:16:56;;;;;;;10.13;3.77;;;9.30;99.90;;;;;;4396170;28;655380;-75
2023/06/28 02:19:44;;;;;;;6.67;3.23;;;9.20;99.90;;;;;;4404861;28;657030;-75
2023/06/28 02:22:31;;;;;;;7.53;3.50;;;9.20;99.90;;;;;;4388040;28;656162;-75
2023/06/28 02:25:18;;;;;;;6.43;3.80;;;9.20;99.90;;;;;;4407217;28;656250;-75
2023/06/28 02:28:06;;;;;;;8.37;3.27;;;9.10;99.90;;;;;;4392444;28;655138;-75
2023/06/28 02:30:55;;;;;;;6.50;3.63;;;9.10;99.90;;;;;;4399384;28;655523;-75
2023/06/28 02:33:42;;;;;;;6.23;3.40;;;9.00;99.90;;;;;;4388976;28;656258;-75
2023/06/28 02:36:29;;;;;;;9.00;3.13;;;9.00;99.90;;;;;;4409475;28;655559;-75
2023/06/28 02:39:17;;;;;;;4.33;2.93;;;8.90;99.90;;;;;;4391116;28;655890;-75
2023/06/28 02:42:04;;;;;;;6.27;3.50;;;8.80;99.90;;;;;;4410664;28;657079;-75
2023/06/28 02:44:51;;;;;;;7.27;3.50;;;8.80;99.90;;;;;;4388488;28;655384;-75
2023/06/28 02:47:40;;;;;;;10.50;3.40;;;8.90;99.90;;;;;;4399657;28;655473;-75
2023/06/28 02:50:27;;;;;;;7.30;3.75;;;8.80;99.90;;;;;;4387574;28;657135;-75
2023/06/28 02:53:14;;;;;;;6.47;3.63;;;8.80;99.90;;;;;;4408653;28;655546;-75
2023/06/28 02:56:02;;;;;;;5.90;4.57;;;8.80;99.90;;;;;;4389072;28;655461;-75
2023/06/28 02:58:49;;;;;;;12.83;5.37;;;8.80;99.90;;;;;;4410525;28;655753;-75
2023/06/28 03:01:36;;;;;;;6.97;4.43;;;8.90;99.90;;;;;;4387821;28;656839;-75
2023/06/28 03:04:27;;;;;;;7.97;4.93;;;9.10;99.90;;;;;;4395243;28;656222;-75
2023/06/28 03:07:14;;;;;;;8.60;5.83;;;9.20;99.90;;;;;;4384857;28;656666;-74
2023/06/28 03:10:02;;;;;;;10.43;5.87;;;9.20;99.90;;;;;;4385994;28;655759;-75
2023/06/28 03:12:49;;;;;;;7.37;5.30;;;9.30;99.90;;;;;;4407174;28;656681;-75
2023/06/28 03:15:36;;;;;;;6.63;4.53;;;9.30;99.90;;;;;;4388170;28;655498;-75
2023/06/28 03:18:23;;;;;;;8.37;4.47;;;9.40;99.90;;;;;;4414862;28;655737;-75
2023/06/28 03:21:12;;;;;;;10.90;4.60;;;9.50;99.90;;;;;;4384012;28;655573;-75
2023/06/28 03:23:59;;;;;;;7.50;4.10;;;9.50;99.90;;;;;;4410986;28;656407;-74
2023/06/28 03:26:47;;;;;;;14.53;4.20;;;9.50;99.90;;;;;;4389997;28;655883;-75
2023/06/28 03:29:34;;;;;;;7.17;3.70;;;9.50;99.90;;;;;;4408632;28;656666;-75
2023/06/28 03:32:21;;;;;;;8.15;4.38;;;9.50;99.90;;;;;;4385025;28;655919;-74
2023/06/28 03:35:09;;;;;;;6.63;3.83;;;9.50;99.90;;;;;;4411585;28;655691;-74
2023/06/28 03:37:57;;;;;;;8.97;4.03;;;9.70;99.90;;;;;;4382530;28;655311;-74
2023/06/28 03:40:44;;;;;;;7.97;4.23;;;9.70;99.90;;;;;;4411340;28;654947;-74
2023/06/28 03:43:32;;;;;;;5.50;3.77;;;9.80;99.90;;;;;;4390217;28;655378;-74
2023/06/28 03:46:19;;;;;;;6.97;3.90;;;9.90;99.90;;;;;;4417310;28;654922;-74
2023/06/28 03:49:06;;;;;;;7.90;4.00;;;10.10;99.90;;;;;;4394695;28;656666;-74
2023/06/28 03:51:53;;;;;;;8.53;3.57;;;10.20;99.90;;;;;;4410572;28;656791;-74
2023/06/28 03:54:42;;;;;;;5.53;3.23;;;10.20;99.90;;;;;;4388082;28;656603;-73
2023/06/28 03:57:29;;;;;;;5.00;3.40;;;10.30;99.90;;;;;;4408139;28;656267;-74
2023/06/28 04:00:17;;;;;;;6.27;3.63;;;10.40;99.90;;;;;;4392560;28;659371;-73
2023/06/28 04:03:05;;;;;;;4.90;3.03;;;10.50;99.90;;;;;;4412053;28;657832;-74
2023/06/28 04:05:52;;;;;;;5.10;3.37;;;10.50;99.90;;;;;;4386552;28;657481;-73
2023/06/28 04:08:39;;;;;;;5.73;2.97;;;10.70;99.90;;;;;;4410173;28;656901;-73
2023/06/28 04:11:28;;;;;;;6.10;3.10;;;10.80;99.90;;;;;;4377644;28;656215;-74
2023/06/28 04:14:15;;;;;;;5.03;3.00;;;10.90;99.90;;;;;;4392222;28;656489;-73
2023/06/28 04:17:03;;;;;;;6.60;3.33;;;11.00;99.90;;;;;;4413346;28;656996;-73
2023/06/28 04:19:50;;;;;;;4.67;2.70;;;11.00;99.90;;;;;;4401269;28;657107;-74
2023/06/28 04:22:37;;;;;;;9.23;3.00;;;11.10;99.90;;;;;;4408457;28;657588;-74
2023/06/28 04:25:25;;;;;;;5.33;2.93;;;11.30;99.90;;;;;;4409324;28;657627;-74
2023/06/28 04:28:14;;;;;;;5.30;3.00;;;11.30;99.90;;;;;;4408604;28;657339;-73
2023/06/28 04:31:01;;;;;;;5.67;3.20;;;11.30;99.90;;;;;;4389397;28;656542;-73
2023/06/28 04:33:49;;;;;;;7.13;3.00;;;11.50;99.90;;;;;;4406506;28;656851;-74
2023/06/28 04:36:39;;;;;;;5.93;3.00;;;11.60;99.90;;;;;;4387926;28;656864;-74
2023/06/28 04:39:27;;;;;;;8.93;3.10;;;11.70;99.90;;;;;;4388721;28;656761;-74
2023/06/28 04:42:15;;;;;;;5.50;3.33;;;11.80;99.90;;;;;;4403894;28;657480;-73
2023/06/28 04:45:06;;;;;;;5.30;2.90;;;11.80;99.90;;;;;;4377571;28;656845;-73
2023/06/28 04:47:53;;;;;;;8.60;3.40;;;11.90;99.90;;;;;;4382276;28;657108;-73
2023/06/28 04:50:40;;;;;;;9.53;2.80;;;12.00;99.90;;;;;;4391389;28;656830;-74
2023/06/28 04:53:27;;;;;;;5.87;2.90;;;12.10;99.90;;;;;;4412620;28;657178;-74
2023/06/28 04:56:15;;;;;;;6.80;2.77;;;12.30;99.90;;;;;;4404617;28;657031;-74
2023/06/28 04:59:02;;;;;;;7.07;3.00;;;12.30;99.90;;;;;;4416254;28;656971;-73
2023/06/28 05:01:51;;;;;;;5.20;2.53;;;12.40;99.90;;;;;;4410422;28;656468;-74
2023/06/28 05:04:39;;;;;;;7.17;2.80;;;12.60;99.90;;;;;;4380940;28;657624;-75
2023/06/28 05:07:28;;;;;;;6.60;2.50;;;12.60;99.90;;;;;;4384845;28;656951;-75
2023/06/28 05:10:15;;;;;;;4.65;2.45;;;12.80;99.90;;;;;;4395883;28;656870;-76
2023/06/28 05:13:02;;;;;;;4.47;2.63;;;12.90;99.90;;;;;;4413636;28;657514;-74
2023/06/28 05:15:50;;;;;;;4.80;2.47;;;13.00;99.90;;;;;;4411177;28;656702;-73
2023/06/28 05:18:39;;;;;;;5.20;2.53;;;13.20;99.90;;;;;;4399061;28;657716;-76
2023/06/28 05:21:26;;;;;;;4.13;2.60;;;13.40;99.90;;;;;;4382996;28;656473;-74
2023/06/28 05:24:13;;;;;;;5.30;2.80;;;13.50;99.90;;;;;;4408048;28;657291;-75
2023/06/28 05:27:00;;;;;;;3.47;2.53;;;13.70;99.90;;;;;;4388883;28;656765;-74
2023/06/28 05:29:48;;;;;;;7.33;3.17;;;13.80;99.90;;;;;;4406168;28;658079;-76
2023/06/28 05:32:35;;;;;;;5.80;2.50;;;14.00;99.90;;;;;;4402167;28;656306;-74
2023/06/28 05:35:24;;;;;;;6.43;2.50;;;14.20;99.90;;;;;;4408687;28;657319;-76
2023/06/28 05:38:11;;;;;;;5.83;2.70;;;14.40;99.90;;;;;;4384796;28;656568;-75
2023/06/28 05:41:12;;;;;;;4.27;2.27;;;14.40;99.90;;;;;;4412539;28;657237;-75
2023/06/28 05:43:59;;;;;;;5.53;2.40;;;14.40;99.90;;;;;;4384780;28;656797;-77
2023/06/28 05:46:47;;;;;;;4.67;3.00;;;14.40;99.90;;;;;;4387304;28;656451;-74
2023/06/28 05:49:37;;;;;;;7.23;2.90;;;14.50;99.90;;;;;;4406908;28;657353;-75
2023/06/28 05:52:26;;;;;;;5.57;2.93;;;14.40;99.90;;;;;;4386303;28;656976;-75
2023/06/28 05:55:13;;;;;;;6.97;2.60;;;14.50;99.90;;;;;;4375404;28;657331;-75
2023/06/28 05:58:00;;;;;;;5.35;2.47;;;14.30;99.90;;;;;;4386743;28;657098;-73
2023/06/28 06:00:47;;;;;;;5.20;2.70;;;14.10;99.90;;;;;;4410001;28;656397;-76
2023/06/28 06:03:35;;;;;;;5.27;2.50;;;14.00;99.90;;;;;;4406697;28;656569;-75
2023/06/28 06:06:22;;;;;;;5.33;2.20;;;14.30;99.90;;;;;;4412057;28;657312;-75
2023/06/28 06:09:11;;;;;;;7.40;2.40;;;14.30;99.90;;;;;;4412438;28;656965;-74
2023/06/28 06:11:58;;;;;;;6.80;2.83;;;14.40;99.90;;;;;;4376963;28;657379;-76
2023/06/28 06:14:45;;;;;;;7.27;2.90;;;14.30;99.90;;;;;;4385358;28;656924;-76
2023/06/28 06:17:32;;;;;;;5.90;2.53;;;14.10;99.90;;;;;;4409276;28;657203;-74
2023/06/28 06:20:20;;;;;;;5.30;2.70;;;14.20;99.90;;;;;;4394969;28;656297;-74
2023/06/28 06:23:07;;;;;;;7.97;3.40;;;14.40;99.90;;;;;;4407494;28;658352;-76
2023/06/28 06:25:56;;;;;;;6.63;3.10;;;14.70;99.90;;;;;;4410111;28;656040;-74
2023/06/28 06:28:43;;;;;;;8.80;3.03;;;14.80;99.90;;;;;;4380017;28;656636;-74
2023/06/28 06:31:30;;;;;;;6.18;2.50;;;14.80;99.90;;;;;;4384561;28;656778;-74
2023/06/28 06:34:18;;;;;;;6.83;2.70;;;14.70;99.90;;;;;;4400054;28;657277;-74
2023/06/28 06:37:05;;;;;;;6.53;2.70;;;14.80;99.90;;;;;;4396003;28;656898;-74
2023/06/28 06:39:53;;;;;;;7.77;2.10;;;15.00;99.90;;;;;;4404951;28;657146;-75
2023/06/28 06:42:42;;;;;;;4.47;2.40;;;15.10;99.90;;;;;;4378517;28;657134;-74
2023/06/28 06:45:29;;;;;;;12.07;2.90;;;15.00;99.90;;;;;;4404572;28;657042;-75
2023/06/28 06:48:16;;;;;;;8.50;3.17;;;14.90;99.90;;;;;;4388662;28;657766;-73
2023/06/28 06:51:04;;;;;;;6.90;3.50;;;14.90;99.90;;;;;;4408715;28;656395;-75
2023/06/28 06:53:51;;;;;;;10.90;3.50;;;15.00;99.90;;;;;;4387734;28;656315;-73
2023/06/28 06:56:39;;;;;;;16.47;3.50;;;15.00;99.90;;;;;;4400848;28;657943;-74
2023/06/28 06:59:28;;;;;;;8.17;3.17;;;15.20;99.90;;;;;;4388276;28;658690;-76
2023/06/28 07:02:16;;;;;;;4.60;2.73;;;15.40;99.90;;;;;;4378538;28;656780;-74
2023/06/28 07:05:03;;;;;;;16.17;3.40;;;15.40;99.90;;;;;;4406907;28;656812;-73
2023/06/28 07:07:50;;;;;;;11.55;3.15;;;15.20;99.90;;;;;;4386384;28;657546;-74
2023/06/28 07:10:37;;;;;;;8.10;2.93;;;15.20;99.90;;;;;;4403465;28;658643;-74
2023/06/28 07:13:25;;;;;;;5.70;1.93;;;15.30;99.90;;;;;;4401863;28;656694;-74
2023/06/28 07:16:14;;;;;;;3.00;2.17;;;15.70;99.90;;;;;;4411474;28;656902;-73
2023/06/28 07:19:01;;;;;;;8.40;2.23;;;15.80;99.90;;;;;;4380963;28;656799;-73
2023/06/28 07:21:49;;;;;;;3.17;2.30;;;15.70;99.90;;;;;;4402066;28;657035;-74
2023/06/28 07:24:36;;;;;;;5.40;1.90;;;16.00;99.90;;;;;;4384675;28;656894;-80
2023/06/28 07:27:23;;;;;;;6.03;2.07;;;16.20;99.90;;;;;;4409312;28;657661;-75
2023/06/28 07:30:11;;;;;;;5.50;1.90;;;16.30;99.90;;;;;;4386041;28;656723;-74
2023/06/28 07:32:59;;;;;;;5.37;2.23;;;16.30;99.90;;;;;;4403369;28;657040;-73
2023/06/28 07:35:47;;;;;;;5.17;2.13;;;16.00;99.90;;;;;;4379587;28;657276;-73
2023/06/28 07:38:34;;;;;;;5.47;2.10;;;15.80;99.90;;;;;;4405390;28;656999;-73
2023/06/28 07:41:21;;;;;;;3.97;2.10;;;15.60;99.90;;;;;;4387960;28;656610;-78
2023/06/28 07:44:08;;;;;;;8.80;2.30;;;16.00;99.90;;;;;;4411224;28;657507;-74
2023/06/28 07:46:56;;;;;;;4.37;2.00;;;15.90;99.90;;;;;;4384140;28;656342;-72
2023/06/28 07:49:44;;;;;;;6.38;2.00;;;16.30;99.90;;;;;;4405201;28;656255;-74
2023/06/28 07:52:32;;;;;;;5.50;1.83;;;16.50;99.90;;;;;;4384381;28;656878;-78
2023/06/28 07:55:19;;;;;;;2.23;1.70;;;16.70;99.90;;;;;;4410244;28;656332;-75
2023/06/28 07:58:06;;;;;;;5.10;1.73;;;16.80;99.90;;;;;;4385094;28;657560;-76
2023/06/28 08:00:53;;;;;;;4.70;1.47;;;17.10;99.90;;;;;;4408365;28;657441;-74
2023/06/28 08:03:40;;;;;;;3.90;1.70;;;17.00;99.90;;;;;;4388618;28;656156;-76
2023/06/28 08:06:29;;;;;;;9.90;1.60;;;16.90;99.90;;;;;;4394126;28;657218;-73
2023/06/28 08:09:16;;;;;;;6.73;1.60;;;16.80;99.90;;;;;;4388456;28;656769;-74
2023/06/28 08:12:04;;;;;;;14.43;2.00;;;17.10;99.90;;;;;;4403386;28;657946;-74
2023/06/28 08:14:51;;;;;;;6.23;1.83;;;17.50;99.90;;;;;;4384824;28;657543;-74
2023/06/28 08:17:39;;;;;;;5.90;1.53;;;17.60;99.90;;;;;;4406238;28;657198;-74
2023/06/28 08:20:26;;;;;;;4.17;1.83;;;17.80;99.90;;;;;;4389183;28;656123;-75
2023/06/28 08:23:14;;;;;;;6.10;2.08;;;17.20;99.90;;;;;;4411118;28;656060;-74
2023/06/28 08:26:02;;;;;;;5.40;1.60;;;17.10;99.90;;;;;;4387990;28;656825;-74
2023/06/28 08:28:49;;;;;;;5.80;1.70;;;16.80;99.90;;;;;;4406546;28;656874;-74
2023/06/28 08:31:37;;;;;;;2.63;1.33;;;16.80;99.90;;;;;;4389676;28;656841;-74
2023/06/28 08:34:24;;;;;;;9.23;2.10;;;17.30;99.90;;;;;;4410231;28;656736;-73
2023/06/28 08:37:11;;;;;;;4.00;1.90;;;17.50;99.90;;;;;;4389458;28;657251;-75
2023/06/28 08:40:00;;;;;;;4.40;1.70;;;17.00;99.90;;;;;;4412717;28;657285;-74
2023/06/28 08:42:47;;;;;;;4.80;1.80;;;16.80;99.90;;;;;;4390520;28;657072;-73
2023/06/28 08:45:34;;;;;;;6.87;1.60;;;16.60;99.90;;;;;;4409000;28;656663;-73
2023/06/28 08:48:21;;;;;;;3.97;1.80;;;17.10;99.90;;;;;;4386267;28;656709;-74
2023/06/28 08:51:09;;;;;;;5.63;1.70;;;17.60;99.90;;;;;;4405970;28;657092;-74
2023/06/28 08:53:56;;;;;;;4.23;1.67;;;17.90;99.90;;;;;;4383284;28;656601;-76
2023/06/28 08:56:45;;;;;;;6.37;1.70;;;18.60;99.90;;;;;;4408001;28;656702;-74
2023/06/28 08:59:32;;;;;;;5.43;1.70;;;18.50;99.90;;;;;;4384537;28;657097;-74
2023/06/28 09:02:19;;;;;;;6.13;1.80;;;18.60;99.90;;;;;;4413178;28;656819;-75
2023/06/28 09:05:07;;;;;;;5.63;2.00;;;18.20;99.90;;;;;;4389085;28;658605;-74
2023/06/28 09:07:54;;;;;;;4.27;1.50;;;17.80;99.90;;;;;;4407270;28;656737;-75
2023/06/28 09:10:42;;;;;;;4.50;1.57;;;17.50;99.90;;;;;;4389295;28;656384;-75
2023/06/28 09:13:31;;;;;;;3.20;1.47;;;17.90;99.90;;;;;;4408231;28;656963;-74
2023/06/28 09:16:18;;;;;;;11.03;1.77;;;18.70;99.90;;;;;;4385989;28;657301;-74
2023/06/28 09:19:06;;;;;;;11.43;1.93;;;18.80;99.90;;;;;;4388571;28;657356;-74
2023/06/28 09:21:53;;;;;;;6.53;1.40;;;18.30;99.90;;;;;;4408581;28;658732;-74
2023/06/28 09:24:40;;;;;;;4.13;1.70;;;17.80;99.90;;;;;;4393537;28;656641;-73
2023/06/28 09:27:28;;;;;;;4.17;1.63;;;18.00;99.90;;;;;;4408446;28;655881;-74
2023/06/28 09:30:19;;;;;;;8.17;1.60;;;17.90;99.90;;;;;;4398414;28;656512;-73
2023/06/28 09:33:06;;;;;;;3.33;1.50;;;17.50;99.90;;;;;;4391518;28;656955;-74
2023/06/28 09:35:54;;;;;;;8.65;1.70;;;17.50;99.90;;;;;;4405409;28;656935;-73
2023/06/28 09:38:43;;;;;;;4.57;1.43;;;17.80;99.90;;;;;;4386208;28;656613;-73
2023/06/28 09:41:38;;;;;;;10.70;1.67;;;17.60;99.90;;;;;;4388904;28;656493;-73
2023/06/28 09:44:29;;;;;;;3.63;1.40;;;18.30;99.90;;;;;;4364450;28;658178;-75
2023/06/28 09:47:18;;;;;;;6.43;1.50;;;18.70;99.90;;;;;;4388745;28;657051;-73
2023/06/28 09:50:06;;;;;;;5.13;1.23;;;18.40;99.90;;;;;;4396444;28;658070;-73
2023/06/28 09:52:53;;;;;;;4.53;1.33;;;18.40;99.90;;;;;;4412013;28;657179;-76
2023/06/28 09:55:41;;;;;;;5.90;1.40;;;17.70;99.90;;;;;;4390772;28;656742;-74
2023/06/28 09:58:28;;;;;;;3.40;1.53;;;17.80;99.90;;;;;;4405645;28;657755;-74
2023/06/28 10:01:16;;;;;;;5.03;1.57;;;17.30;99.90;;;;;;4389676;28;657082;-74
2023/06/28 10:04:05;;;;;;;5.77;2.17;;;16.30;99.90;;;;;;4407501;28;657621;-74
2023/06/28 10:06:52;;;;;;;3.53;1.60;;;16.10;99.90;;;;;;4385918;28;662316;-73
2023/06/28 10:09:40;;;;;;;5.67;1.63;;;16.10;99.90;;;;;;4407574;28;655794;-73
2023/06/28 10:12:27;;;;;;;5.80;1.70;;;15.90;99.90;;;;;;4387610;28;657702;-74
2023/06/28 10:15:16;;;;;;;5.13;1.70;;;15.90;99.90;;;;;;4407752;28;658781;-74
2023/06/28 10:18:04;;;;;;;4.17;2.00;;;16.20;99.90;;;;;;4384146;28;657358;-73
2023/06/28 10:20:52;;;;;;;6.32;1.83;;;15.90;99.90;;;;;;4383589;28;657540;-73
2023/06/28 10:23:40;;;;;;;3.77;1.70;;;16.30;99.90;;;;;;4397877;28;656462;-73
2023/06/28 10:26:28;;;;;;;4.50;2.10;;;16.60;99.90;;;;;;4410901;28;656905;-73
2023/06/28 10:29:15;;;;;;;4.53;1.80;;;16.80;99.90;;;;;;4390275;28;657053;-73
2023/06/28 10:32:02;;;;;;;5.53;1.87;;;17.40;99.90;;;;;;4411075;28;656188;-73
2023/06/28 10:34:50;;;;;;;6.60;1.87;;;17.00;99.90;;;;;;4404258;28;656532;-74
2023/06/28 10:37:39;;;;;;;6.57;2.00;;;17.40;99.90;;;;;;4408389;28;656296;-73
2023/06/28 10:40:26;;;;;;;4.43;1.50;;;17.70;99.90;;;;;;4387945;28;656210;-73
2023/06/28 10:43:22;;;;;;;4.40;1.80;;;18.70;99.90;;;;;;4406248;28;657592;-74
2023/06/28 10:46:21;;;;;;;5.10;1.67;;;18.90;99.90;;;;;;4385724;28;656334;-74
2023/06/28 10:49:09;;;;;;;3.37;1.67;;;18.60;99.90;;;;;;4383666;28;657368;-74
2023/06/28 10:51:56;;;;;;;4.27;1.67;;;18.70;99.90;;;;;;4387245;28;657009;-72
2023/06/28 10:54:45;;;;;;;6.63;1.77;;;18.50;99.90;;;;;;4405660;28;656860;-74
2023/06/28 10:57:37;;;;;;;2.93;1.50;;;18.10;99.90;;;;;;4376881;28;657346;-73
2023/06/28 11:00:52;;;;;;;4.13;1.60;;;18.10;99.90;;;;;;4385398;28;657024;-73
2023/06/28 11:03:41;;;;;;;5.73;1.30;;;17.90;99.90;;;;;;4379787;28;656564;-74
2023/06/28 11:06:29;;;;;;;6.63;1.70;;;18.00;99.90;;;;;;4410649;28;657138;-73
2023/06/28 11:09:17;;;;;;;3.67;1.53;;;17.60;99.90;;;;;;4389697;28;657130;-73
2023/06/28 11:12:08;;;;;;;1.93;1.23;;;18.10;99.90;;;;;;4409191;28;658167;-74
2023/06/28 11:15:08;;;;;;;5.83;1.50;;;18.80;99.90;;;;;;4390220;28;656380;-76
2023/06/28 11:17:55;;;;;;;2.40;1.27;;;19.10;99.90;;;;;;4353844;28;656789;-73
2023/06/28 11:20:48;;;;;;;4.77;1.50;;;19.60;99.90;;;;;;4384052;28;657251;-73
2023/06/28 11:23:36;;;;;;;5.87;1.50;;;19.70;99.90;;;;;;4356207;28;656627;-77
2023/06/28 11:26:33;;;;;;;7.53;1.80;;;20.00;99.90;;;;;;4401305;28;656959;-76
2023/06/28 11:29:22;;;;;;;6.83;1.90;;;20.20;99.90;;;;;;4385717;28;656928;-79
2023/06/28 11:32:09;;;;;;;5.77;1.80;;;20.20;99.90;;;;;;4406022;28;657374;-75
2023/06/28 11:34:58;;;;;;;4.60;1.50;;;19.80;99.90;;;;;;4386093;28;656618;-79
2023/06/28 11:37:45;;;;;;;5.10;1.20;;;18.80;99.90;;;;;;4389585;28;656804;-75
2023/06/28 11:40:32;;;;;;;6.20;1.60;;;17.60;99.90;;;;;;4407697;28;656411;-76
2023/06/28 11:43:22;;;;;;;4.87;1.33;;;17.20;99.90;;;;;;4400654;28;656380;-74
2023/06/28 11:46:10;;;;;;;9.23;1.40;;;17.00;99.90;;;;;;4377882;28;656737;-74
2023/06/28 11:48:59;;;;;;;10.97;1.67;;;17.10;99.90;;;;;;4372061;28;657734;-76
2023/06/28 11:51:48;;;;;;;5.40;1.40;;;17.10;99.90;;;;;;4383082;28;657460;-73
2023/06/28 11:54:35;;;;;;;4.40;1.43;;;17.10;99.90;;;;;;4389043;28;656730;-74
2023/06/28 11:57:23;;;;;;;3.83;1.60;;;17.00;99.90;;;;;;4411135;28;657522;-74
2023/06/28 12:00:11;;;;;;;8.03;1.40;;;17.20;99.90;;;;;;4397319;28;656678;-74
2023/06/28 12:03:00;;;;;;;5.93;1.43;;;17.70;99.90;;;;;;4408340;28;657391;-74
2023/06/28 12:05:53;;;;;;;3.17;1.67;;;17.70;99.90;;;;;;4378965;28;657753;-75
2023/06/28 12:08:41;;;;;;;5.23;1.70;;;18.00;99.90;;;;;;4372024;28;657055;-75
2023/06/28 12:11:28;;;;;;;5.63;1.93;;;18.30;99.90;;;;;;4410604;28;657059;-74
2023/06/28 12:14:15;;;;;;;6.20;1.80;;;18.30;99.90;;;;;;4390267;28;656356;-75
2023/06/28 12:17:03;;;;;;;4.97;1.77;;;18.20;99.90;;;;;;4411948;28;656537;-74
2023/06/28 12:19:54;;;;;;;5.27;1.53;;;18.60;99.90;;;;;;4396439;28;657127;-74
2023/06/28 12:22:43;;;;;;;4.43;1.80;;;19.00;99.90;;;;;;4380881;28;656765;-75
2023/06/28 12:25:30;;;;;;;8.17;1.90;;;19.60;99.90;;;;;;4398110;28;656534;-75
2023/06/28 12:28:18;;;;;;;4.87;1.60;;;19.80;99.90;;;;;;4410803;28;657825;-76
2023/06/28 12:31:05;;;;;;;7.10;1.83;;;19.80;99.90;;;;;;4398250;28;657557;-75
2023/06/28 12:33:56;;;;;;;7.73;1.97;;;20.30;99.90;;;;;;4414173;28;657050;-74
2023/06/28 12:36:44;;;;;;;4.53;1.70;;;20.90;99.90;;;;;;4390384;28;657226;-74
2023/06/28 12:39:32;;;;;;;2.27;1.50;;;21.20;98.00;;;;;;4383715;28;657161;-75
2023/06/28 12:42:20;;;;;;;7.40;2.23;;;21.30;97.80;;;;;;4406967;28;657089;-77
2023/06/28 12:45:08;;;;;;;6.63;1.90;;;21.10;93.00;;;;;;4391245;28;657386;-74
2023/06/28 12:47:55;;;;;;;7.00;1.93;;;20.60;97.40;;;;;;4388868;28;656820;-74
2023/06/28 12:50:42;;;;;;;8.87;2.00;;;21.10;99.40;;;;;;4409694;28;657806;-74
2023/06/28 12:53:32;;;;;;;8.10;1.90;;;22.10;99.90;;;;;;4406952;28;657453;-74
2023/06/28 12:56:19;;;;;;;6.83;1.70;;;21.70;84.50;;;;;;4400647;28;656037;-76
2023/06/28 12:59:06;;;;;;;3.43;1.40;;;21.90;85.70;;;;;;4391778;28;657393;-73
2023/06/28 13:01:53;;;;;;;11.33;1.90;;;22.00;78.80;;;;;;4407521;28;657572;-74
2023/06/28 13:04:41;;;;;;;3.53;1.50;;;21.00;73.80;;;;;;4389303;28;657388;-74
2023/06/28 13:07:28;;;;;;;4.47;1.40;;;21.20;71.40;;;;;;4412973;28;656957;-77
2023/06/28 13:10:17;;;;;;;3.83;1.20;;;21.70;71.30;;;;;;4394111;28;658002;-74
2023/06/28 13:13:04;;;;;;;13.47;1.50;;;21.30;64.40;;;;;;4403074;28;659232;-76
2023/06/28 13:15:51;;;;;;;10.67;1.40;;;21.20;63.30;;;;;;4389333;28;657959;-75
2023/06/28 13:18:38;;;;;;;3.47;1.20;;;20.80;60.70;;;;;;4412914;28;658751;-74
2023/06/28 13:21:25;;;;;;;6.03;1.60;;;19.70;64.20;;;;;;4391205;28;656762;-75
2023/06/28 13:24:13;;;;;;;10.70;1.43;;;19.80;65.00;;;;;;4411037;28;656943;-74
2023/06/28 13:27:01;;;;;;;2.83;1.23;;;20.50;67.00;;;;;;4395559;28;658104;-77
2023/06/28 13:29:49;;;;;;;3.77;1.30;;;20.70;65.00;;;;;;4405107;28;657331;-74
2023/06/28 13:32:36;;;;;;;6.27;1.40;;;20.30;66.20;;;;;;4385504;28;656676;-74
2023/06/28 13:35:23;;;;;;;10.87;1.87;;;19.60;70.60;;;;;;4409853;28;656672;-74
2023/06/28 13:38:10;;;;;;;6.73;1.27;;;19.50;70.70;;;;;;4374003;28;657458;-74
2023/06/28 13:40:58;;;;;;;5.70;1.50;;;19.70;69.50;;;;;;4411744;28;656620;-74
2023/06/28 13:43:47;;;;;;;2.03;1.40;;;20.10;70.40;;;;;;4397897;28;656826;-73
2023/06/28 13:46:34;;;;;;;2.43;1.57;;;20.20;67.10;;;;;;4403877;28;656649;-76
2023/06/28 13:49:21;;;;;;;4.40;1.53;;;20.60;66.20;;;;;;4384362;28;656856;-76
2023/06/28 13:52:09;;;;;;;3.93;1.60;;;20.10;64.60;;;;;;4407909;28;656967;-76
2023/06/28 13:54:56;;;;;;;3.90;1.60;;;20.30;71.10;;;;;;4385620;28;656660;-77
2023/06/28 13:57:43;;;;;;;7.63;1.40;;;20.80;66.70;;;;;;4406635;28;657132;-76
2023/06/28 14:00:32;;;;;;;10.23;1.77;;;21.30;68.40;;;;;;4385556;28;656831;-76
2023/06/28 14:03:19;;;;;;;5.93;1.63;;;20.80;71.50;;;;;;4410622;28;656980;-73
2023/06/28 14:06:06;;;;;;;8.47;1.70;;;19.90;74.50;;;;;;4388486;28;657654;-73
2023/06/28 14:08:53;;;;;;;8.27;1.30;;;19.60;77.10;;;;;;4404117;28;657149;-73
2023/06/28 14:11:41;;;;;;;8.23;1.47;;;18.60;84.50;;;;;;4388047;28;656671;-74
2023/06/28 14:14:28;;;;;;;4.87;1.40;;;18.50;85.30;;;;;;4410233;28;657417;-74
2023/06/28 14:17:17;;;;;;;4.90;1.10;;;18.20;81.00;;;;;;4389650;28;656859;-76
2023/06/28 14:20:04;;;;;;;3.60;1.50;;;18.10;82.10;;;;;;4403534;28;656442;-73
2023/06/28 14:22:53;;;;;;;1.93;0.90;;;17.40;90.00;;;;;;4382789;28;657321;-73
2023/06/28 14:25:40;;;;;;;6.93;1.30;;;17.40;96.10;;;;;;4388645;28;656703;-74